• Join FlightAware (Why Join?)
  • Login
  • US Flag 
07:18PM EDT


 

Airport Tracker/Info


-or-


 

Live Flight TrackerFlight Track Log ✈ KCE2 ✈ 17-May-2013 ✈ CYSJ - KPSM

Flight Track Log - Related Links

Times and Time Zones

All times are in EDT time to prevent confusion due to time zone crossing. See the KCE2 flight status page for this flight to view local times or setup timezone preferences in your user account.

Time Position Orientation Groundspeed Altitude Reporting Facility
EDT Latitude Longitude Course Direction KTS MPH feet Rate Location/Type
03:48PM 45.2600 -66.1760 239° Southwest 325 374 12,600  Level FlightAware
03:49PM 45.2150 -66.2810 239° Southwest 349 402 16,100 3,540 Climbing FlightAware
03:50PM 45.1390 -66.4540 238° Southwest 368 423 20,900 3,120 Climbing FlightAware
03:51PM 45.0800 -66.5890 238° Southwest 376 433 24,000 2,700 Climbing FlightAware
03:53PM 45.0150 -66.7370 238° Southwest 383 441 27,000 2,100 Climbing FlightAware
03:54PM 44.9470 -66.8910 238° Southwest 406 467 28,900 1,800 Climbing FlightAware
03:55PM 44.8660 -67.0730 238° Southwest 412 474 31,500 1,740 Climbing FlightAware
03:56PM 44.7930 -67.2360 238° Southwest 425 489 33,300 1,500 Climbing FlightAware
03:57PM 44.7190 -67.4000 238° Southwest 428 493 35,000 1,500 Climbing FlightAware
03:59PM 44.6440 -67.5650 237° Southwest 422 486 36,800 1,500 Climbing FlightAware
04:00PM 44.5570 -67.7560 237° Southwest 402 463 38,900 1,200 Climbing FlightAware
04:01PM 44.4880 -67.9070 237° Southwest 406 467 40,000 420 Climbing FlightAware
04:02PM 44.4120 -68.0710 237° Southwest 430 495 40,000  Level FlightAware
04:03PM 44.3400 -68.2270 237° Southwest 443 510 40,000  Level FlightAware
04:04PM 44.2900 -68.3350 237° Southwest 444 511 40,000  Level FlightAware
04:05PM 44.2390 -68.4440 237° Southwest 442 509 40,000 -180 Level FlightAware
04:06PM 44.1950 -68.5380 237° Southwest 442 509 39,800 -1,080 Descending FlightAware
04:06PM 44.1430 -68.6470 236° Southwest 439 505 38,500 -1,080 Descending FlightAware
04:07PM 44.0840 -68.7700 236° Southwest 431 496 38,000 -360 Descending FlightAware
04:08PM 44.0460 -68.8480 236° Southwest 431 496 38,000 -2,520 Level FlightAware
04:09PM 43.9830 -68.9830 237° Southwest 412 474 34,100 -2,520 Descending FlightAware
04:10PM 43.9470 -69.0580 236° Southwest 412 474 34,100  Level FlightAware
04:10PM 43.9110 -69.1320 236° Southwest 412 474 34,100  Level FlightAware
04:11PM 43.8660 -69.2250 236° Southwest 412 474 34,100  Level FlightAware
04:12PM 43.8290 -69.3000 236° Southwest 412 474 34,100 -6,840 Level FlightAware
04:12PM 43.7520 -69.4650 237° Southwest 431 496 25,000 -7,740 Descending FlightAware
04:13PM 43.7010 -69.5690 236° Southwest 420 483 23,200 -2,280 Descending FlightAware
04:14PM 43.6620 -69.6500 236° Southwest 404 465 21,800 -1,020 Descending FlightAware
04:15PM 43.6180 -69.7360 235° Southwest 404 465 21,800  Level FlightAware
04:15PM 43.5820 -69.8080 235° Southwest 404 465 21,800 -3,840 Level FlightAware
04:16PM 43.5380 -69.9020 237° Southwest 363 418 16,700 -5,100 Descending FlightAware
04:17PM 43.4950 -69.9900 236° Southwest 354 407 14,600 -2,280 Descending FlightAware
04:17PM 43.4590 -70.0640 236° Southwest 358 412 13,500 -1,500 Descending FlightAware
04:18PM 43.4180 -70.1460 235° Southwest 360 414 12,500 -1,680 Descending FlightAware
04:19PM 43.3800 -70.2220 235° Southwest 346 398 11,200 -2,220 Descending FlightAware
04:19PM 43.3390 -70.3030 235° Southwest 322 371 9,400 -2,340 Descending FlightAware
04:20PM 43.3190 -70.3440 236° Southwest 312 359 8,500 -1,980 Descending FlightAware
04:20PM 43.2950 -70.3920 236° Southwest 296 341 7,600 -1,800 Descending FlightAware
04:21PM 43.2780 -70.4270 236° Southwest 290 334 6,900 -1,800 Descending FlightAware
04:21PM 43.2650 -70.4520 234° Southwest 288 331 6,400 -1,920 Descending FlightAware
04:22PM 43.2420 -70.4980 236° Southwest 292 336 5,500 -1,680 Descending FlightAware
04:22PM 43.2340 -70.5140 236° Southwest 292 336 5,300 -1,680 Descending FlightAware
04:22PM 43.2120 -70.5580 236° Southwest 292 336 4,400 -1,740 Descending FlightAware
04:22PM 43.2010 -70.5800 236° Southwest 297 342 4,000 -840 Descending FlightAware
04:23PM 43.1750 -70.6230 230° Southwest 288 331 3,800 -780 Descending FlightAware
04:23PM 43.1500 -70.6450 213° Southwest 278 320 3,300 -1,380 Descending FlightAware
04:24PM 43.1300 -70.6620 212° Southwest 270 311 2,900 -840 Descending FlightAware
04:24PM 43.0980 -70.6910 213° Southwest 272 313 2,600 -1,140 Descending FlightAware
04:25PM 43.0667 -70.7333 213° Southwest 220 253 1,500 -1,200 Descending KA90
04:26PM 43.0500 -70.7833 245° Southwest 165 190 600 1,500 Descending KA90
04:28PM 43.0611 -70.8942 278° West 132 152 6,000 1,800 Climbing Boston Center
04:29PM 43.0617 -70.9425 271° West 132 152 6,000  Level Boston Center
04:30PM 43.0622 -70.9936 271° West 132 152 6,000  Level Boston Center
04:31PM 43.0628 -71.0219 272° West 132 152 6,000  Level Boston Center
04:33PM 43.0667 -70.8167 36° Northeast  Level FlightAware Approximate
04:40PM 43.0779 -70.8233 36° Northeast  Level Estimated
04:41PM 43.0779 -70.8233 36° Northeast  Level Estimated